Date,TemperatureHighF,TemperatureAvgF,TemperatureLowF,DewpointHighF,DewpointAvgF,DewpointLowF,HumidityHigh,HumidityAvg,HumidityLow,PressureMaxIn,PressureMinIn,WindSpeedMaxMPH,WindSpeedAvgMPH,GustSpeedMaxMPH,PrecipitationSumIn
2013-3-1,30,28,25,21,16,14,71,62,57,29.48,29.32,14,5,14,0.00
2013-3-2,32,26,24,18,13,8,64,57,49,29.45,29.41,11,2,11,0.00
2013-3-3,37,24,19,14,7,-4,56,48,19,29.42,29.36,9,2,9,0.00
2013-3-4,60,29,16,18,6,-10,63,40,19,29.51,29.41,7,0,7,0.00
2013-3-5,55,32,20,24,13,1,62,47,19,29.51,29.23,10,2,10,0.00
2013-3-6,56,37,26,32,23,15,75,58,35,29.58,29.23,9,1,9,0.00
2013-3-7,42,36,30,29,22,12,70,58,47,29.76,29.56,9,1,9,0.00
2013-3-8,70,39,24,29,16,2,62,43,19,29.85,29.76,8,0,8,0.00
2013-3-9,57,39,27,30,22,16,74,53,28,29.80,29.43,9,1,9,0.00
2013-3-10,68,52,36,41,33,25,70,51,30,29.44,29.19,11,1,11,0.00
2013-3-11,56,51,39,47,41,29,88,70,49,29.21,28.87,18,4,18,0.24
2013-3-12,39,35,30,32,26,21,80,68,58,29.29,29.06,14,4,14,0.00
2013-3-13,38,30,25,25,13,-7,80,52,19,29.54,29.22,16,4,16,0.00
2013-3-14,54,33,21,12,6,-5,54,34,19,29.62,29.44,12,1,12,0.00
2013-3-15,43,36,30,32,23,11,77,61,39,29.45,29.23,10,2,10,0.02
2013-3-16,38,32,26,27,22,12,77,68,53,29.41,29.16,6,0,6,0.02
2013-3-17,52,31,20,20,9,-12,62,42,19,29.64,29.40,11,2,11,0.09
2013-3-18,38,30,20,34,21,2,86,69,45,29.58,28.93,14,2,14,0.04
2013-3-19,35,27,23,30,14,7,82,59,45,29.30,28.99,20,7,20,0.00
2013-3-20,33,25,17,10,3,-10,55,40,19,29.31,29.25,13,3,13,0.00
2013-3-21,36,25,15,21,11,0,64,55,46,29.30,29.21,12,3,12,0.00
2013-3-22,51,33,25,16,10,-2,53,40,19,29.40,29.28,10,2,10,0.00
2013-3-23,65,38,26,35,15,-2,60,41,19,29.47,29.39,8,0,8,0.00
2013-3-24,49,33,25,26,16,-2,69,51,19,29.44,29.03,57,3,57,0.00
2013-3-25,44,36,32,24,21,18,65,54,41,29.27,28.96,13,5,13,0.00
2013-3-26,51,39,34,28,23,20,63,53,31,29.47,29.27,10,2,10,0.00
2013-3-27,55,41,30,24,18,5,63,43,19,29.55,29.47,12,3,12,0.00
2013-3-28,66,45,34,27,17,4,54,36,19,29.63,29.55,9,2,9,0.00
2013-3-29,75,46,32,30,15,-2,48,30,19,29.65,29.55,8,1,8,0.00
2013-3-30,66,46,31,22,15,-2,53,32,19,29.59,29.31,9,2,9,0.00
2013-3-31,67,48,38,40,27,17,72,47,19,29.32,28.99,12,2,12,0.00